Weather at Vienna International Airport

Public forecast

Using degrees Celsius for public forecast. Weather courtesy of forecast.io.

Current aviation weather report (METAR) for Vienna International Airport

Retrieved 2021/10/22 06:20 UTC (17 minutes ago):

LOWW 220620Z 27010KT 9999 FEW045 12/06 Q1016 NOSIG

Aviation forecast (TAF) for Vienna International Airport

Retrieved 2021/10/22 06:21 UTC (16 minutes ago):

TAF LOWW 220515Z 2206/2312 28010KT 9999 FEW050 TX16/2210Z TN08/2305Z TEMPO 2206/2211 22004KT TEMPO 2211/2214 -SHRA TEMPO 2214/2303 29015G25KT FM230300 29015G25KT 9999 BKN030 PROB40 TEMPO 2303/2312 -SHRA